CheckWX is a tool to help pilots better visualize weather data.  It is not intended as a substitute for an official pre-flight weather briefing.

02:10:16 UTC

EGSS METAR
London Stansted Airport
London, United Kingdom
Current

50 mins ago

EGSS 240120Z AUTO 07004KT 7000 NCD 08/06 Q0994
Observed
Apr-24 @ 01:20 UTC
Wind
  • 070° at 4 KTS
Visibility
7,001 meters
Flight Rules
MVFR
Cloud Levels
  • Clear skies
Temperature
C / 46°F
Dewpoint
C / 43°F
Humidity
87%
Altimeter
29.35" Hg
Pressure
993.92 hPa
Previous

1 hour ago

EGSS 240050Z AUTO 06003KT 7000 NCD 08/07 Q0994
Observed
Apr-24 @ 00:50 UTC
Wind
  • 060° at 3 KTS
Visibility
7,001 meters
Flight Rules
MVFR
Cloud Levels
  • Clear skies
Temperature
C / 46°F
Dewpoint
C / 45°F
Humidity
93%
Altimeter
29.35" Hg
Pressure
993.92 hPa
Previous

2 hours ago

EGSS 240020Z AUTO 07004KT 050V110 7000 NCD 08/07 Q0994
Observed
Apr-24 @ 00:20 UTC
Wind
  • 070° at 4 KTS
Visibility
7,001 meters
Flight Rules
MVFR
Cloud Levels
  • Clear skies
Temperature
C / 46°F
Dewpoint
C / 45°F
Humidity
93%
Altimeter
29.35" Hg
Pressure
993.92 hPa